Time;durP1;ratioP1;P1;durP2;ratioP2;P2;SDS_P1;SDS_P2;PMS_P1;PMS_P2;Temp;Humidity;BMP_temperature;BMP_pressure;BME280_temperature;BME280_humidity;BME280_pressure;Samples;Min_cycle;Max_cycle;Signal;HPM_P1;HPM_P2
2021/12/11 07:59:27;;;;;;;35.70;23.70;;;;;;;4.31;97.98;101109.53;5262815;27;20404;-76
2021/12/11 08:01:58;;;;;;;28.83;21.65;;;;;;;4.22;97.35;101108.22;5258186;28;20044;-76
2021/12/11 08:04:30;;;;;;;31.33;19.80;;;;;;;4.23;96.78;101118.97;5246491;28;20079;-76
2021/12/11 08:07:01;;;;;;;30.70;19.00;;;;;;;4.29;96.74;101120.72;5238828;28;20026;-77
2021/12/11 08:09:34;;;;;;;24.08;17.90;;;;;;;4.29;96.71;101123.47;5238609;28;20025;-76
2021/12/11 08:12:06;;;;;;;21.70;15.93;;;;;;;4.32;96.28;101122.16;5246165;28;20032;-83
2021/12/11 08:14:38;;;;;;;25.27;15.95;;;;;;;4.30;96.79;101133.41;5240101;28;20411;-83
2021/12/11 08:17:13;;;;;;;25.27;15.57;;;;;;;4.35;97.01;101132.69;5250158;28;20039;-83
2021/12/11 08:19:44;;;;;;;24.92;13.35;;;;;;;4.38;96.75;101142.34;5259648;28;20036;-82
2021/12/11 08:22:16;;;;;;;23.15;13.52;;;;;;;4.41;96.95;101139.13;5259500;28;20033;-83
2021/12/11 08:24:48;;;;;;;19.15;12.60;;;;;;;4.34;96.68;101150.22;5254034;28;20486;-83
2021/12/11 08:27:21;;;;;;;22.10;11.35;;;;;;;4.44;97.16;101146.88;5255788;28;20033;-84
2021/12/11 08:29:53;;;;;;;24.40;11.10;;;;;;;4.52;97.00;101160.22;5259830;28;20091;-84
2021/12/11 08:32:25;;;;;;;16.35;9.82;;;;;;;4.63;96.95;101158.53;5241589;28;20037;-82
2021/12/11 08:34:57;;;;;;;17.10;9.70;;;;;;;4.66;97.10;101164.38;5240258;28;20034;-82
2021/12/11 08:37:29;;;;;;;17.55;9.73;;;;;;;4.65;96.55;101175.59;5248492;28;20484;-83
2021/12/11 08:40:01;;;;;;;22.85;8.55;;;;;;;4.67;96.44;101182.53;5258042;28;20451;-82
2021/12/11 08:42:35;;;;;;;19.08;8.35;;;;;;;4.71;96.65;101178.22;5258347;28;20116;-83
2021/12/11 08:45:11;;;;;;;18.35;7.57;;;;;;;4.69;96.32;101185.03;5256064;28;20116;-82
2021/12/11 08:47:42;;;;;;;18.30;7.28;;;;;;;4.68;96.46;101184.22;5242633;28;20097;-82
2021/12/11 08:50:20;;;;;;;18.52;8.00;;;;;;;4.69;96.59;101196.03;5258903;28;20372;-83
2021/12/11 08:52:56;;;;;;;18.13;6.72;;;;;;;4.75;97.10;101182.16;5257976;28;20099;-81
2021/12/11 08:55:32;;;;;;;20.40;6.55;;;;;;;4.78;96.66;101198.16;5251212;28;20033;-82
2021/12/11 08:58:09;;;;;;;13.32;6.28;;;;;;;4.74;97.10;101199.72;5242914;28;20049;-83
2021/12/11 09:00:49;;;;;;;20.50;5.30;;;;;;;4.83;97.27;101207.59;5256087;28;20102;-83
2021/12/11 09:03:31;;;;;;;15.95;6.20;;;;;;;4.91;97.06;101207.19;5250317;28;20044;-81
2021/12/11 09:06:28;;;;;;;17.63;11.48;;;;;;;4.93;96.90;101221.53;5258458;28;20473;-82
2021/12/11 09:09:14;;;;;;;17.08;6.35;;;;;;;4.99;96.93;101226.09;5234372;28;20064;-82
2021/12/11 09:12:09;;;;;;;15.38;5.18;;;;;;;5.00;96.89;101236.81;5244942;28;20093;-79
2021/12/11 09:14:53;;;;;;;13.15;6.45;;;;;;;5.08;97.02;101238.34;5245558;28;20533;-82
2021/12/11 09:17:36;;;;;;;15.25;6.28;;;;;;;5.10;96.60;101244.44;5246092;28;20022;-80
2021/12/11 09:20:23;;;;;;;14.52;5.35;;;;;;;5.10;96.21;101260.13;5238729;28;20493;-82
2021/12/11 09:23:05;;;;;;;15.13;5.90;;;;;;;5.08;96.54;101268.59;5223752;28;20061;-82
2021/12/11 09:25:47;;;;;;;19.70;11.70;;;;;;;5.15;96.50;101268.47;5222178;28;20033;-82
2021/12/11 09:28:27;;;;;;;12.48;5.22;;;;;;;5.17;96.45;101272.66;5223935;28;20022;-79
2021/12/11 09:31:16;;;;;;;9.60;5.70;;;;;;;5.25;96.73;101273.34;5229836;28;20033;-81
2021/12/11 09:34:02;;;;;;;14.25;5.50;;;;;;;5.32;97.24;101285.88;5244581;28;20032;-81
2021/12/11 09:36:42;;;;;;;16.35;4.90;;;;;;;5.35;96.71;101290.06;5240144;28;20485;-77
2021/12/11 09:39:25;;;;;;;14.40;4.57;;;;;;;5.44;96.52;101289.44;5238552;28;20042;-78
2021/12/11 09:41:56;;;;;;;14.45;6.07;;;;;;;5.55;96.75;101303.38;5223561;28;20059;-79
2021/12/11 09:44:35;;;;;;;12.93;4.20;;;;;;;5.58;96.44;101298.22;5237234;28;20063;-80
2021/12/11 09:47:16;;;;;;;15.55;4.60;;;;;;;5.55;96.24;101315.22;5241978;28;20280;-82
2021/12/11 09:49:56;;;;;;;17.63;8.27;;;;;;;5.57;96.00;101324.06;5243861;28;20466;-83
2021/12/11 09:52:29;;;;;;;13.32;4.70;;;;;;;5.58;95.83;101320.22;5238169;28;20363;-83
2021/12/11 09:55:04;;;;;;;14.82;5.20;;;;;;;5.58;96.05;101327.66;5224111;28;20378;-82
2021/12/11 09:57:40;;;;;;;10.73;4.20;;;;;;;5.64;95.98;101330.25;5236884;28;20045;-79
2021/12/11 10:00:23;;;;;;;13.60;4.78;;;;;;;5.60;95.89;101331.00;5243644;28;20434;-79
2021/12/11 10:02:56;;;;;;;14.68;4.68;;;;;;;5.62;95.89;101334.31;5240382;28;20048;-80
2021/12/11 10:05:38;;;;;;;11.85;5.00;;;;;;;5.62;96.22;101335.19;5242753;28;20025;-77
2021/12/11 10:08:29;;;;;;;12.35;4.47;;;;;;;5.61;96.39;101341.75;5233901;28;20029;-79
2021/12/11 10:11:22;;;;;;;12.77;5.32;;;;;;;5.72;95.94;101348.28;5230016;28;20030;-78
2021/12/11 10:14:12;;;;;;;12.30;4.57;;;;;;;5.72;96.22;101350.22;5222384;28;20034;-79
2021/12/11 10:16:48;;;;;;;11.95;4.32;;;;;;;5.75;95.88;101349.72;5240319;28;20044;-80
2021/12/11 10:19:21;;;;;;;12.40;5.18;;;;;;;5.75;95.63;101357.97;5242078;28;20033;-76
2021/12/11 10:21:57;;;;;;;17.80;5.28;;;;;;;5.80;95.47;101366.31;5241937;28;20469;-79
2021/12/11 10:24:30;;;;;;;10.88;4.43;;;;;;;5.85;95.38;101372.78;5243049;28;20033;-76
2021/12/11 10:27:05;;;;;;;12.32;5.05;;;;;;;5.84;95.04;101375.78;5232319;28;20022;-79
2021/12/11 10:29:37;;;;;;;8.87;4.60;;;;;;;5.80;95.39;101371.84;5223349;28;20087;-78
2021/12/11 10:32:16;;;;;;;18.67;5.85;;;;;;;5.86;95.36;101377.22;5235653;28;20382;-76
2021/12/11 10:34:53;;;;;;;21.77;13.07;;;;;;;5.89;95.22;101378.63;5243347;28;20078;-77
2021/12/11 10:37:36;;;;;;;16.95;5.80;;;;;;;5.87;95.01;101373.34;5243780;28;20022;-77
2021/12/11 10:40:17;;;;;;;12.52;5.28;;;;;;;5.93;94.58;101378.97;5221912;28;20022;-78
2021/12/11 10:42:55;;;;;;;13.60;5.90;;;;;;;5.94;94.43;101387.03;5222903;28;20038;-79
2021/12/11 10:45:28;;;;;;;14.95;6.28;;;;;;;5.96;94.57;101393.13;5230450;28;20113;-78
2021/12/11 10:48:05;;;;;;;13.77;7.30;;;;;;;6.09;94.70;101395.56;5235257;28;20018;-77
2021/12/11 10:50:42;;;;;;;10.32;5.18;;;;;;;6.05;94.43;101390.81;5242259;28;20021;-78
2021/12/11 10:53:20;;;;;;;16.10;6.28;;;;;;;6.04;93.97;101409.25;5241387;28;20036;-78
2021/12/11 10:55:54;;;;;;;15.52;5.95;;;;;;;6.06;93.81;101403.50;5242122;28;20034;-79
2021/12/11 10:58:29;;;;;;;20.92;6.22;;;;;;;6.14;93.96;101410.53;5241236;28;20048;-79
2021/12/11 11:01:30;;;;;;;36.70;18.15;;;;;;;6.18;93.96;101414.44;5231116;28;20042;-80
2021/12/11 11:04:08;;;;;;;24.35;13.07;;;;;;;6.19;93.52;101418.91;5228354;28;20018;-79
2021/12/11 11:06:42;;;;;;;13.05;5.50;;;;;;;6.09;93.64;101423.13;5244173;28;20025;-83
2021/12/11 11:09:15;;;;;;;17.25;6.13;;;;;;;6.15;93.80;101428.72;5239781;28;20086;-82
2021/12/11 11:11:49;;;;;;;19.73;5.65;;;;;;;6.18;94.17;101439.25;5240855;28;20040;-80
2021/12/11 11:14:21;;;;;;;13.98;6.07;;;;;;;6.19;94.00;101443.69;5228818;28;20034;-80
2021/12/11 11:16:56;;;;;;;18.98;4.70;;;;;;;6.19;94.50;101449.19;5235135;28;20021;-80
2021/12/11 11:19:29;;;;;;;11.25;4.97;;;;;;;6.20;94.14;101445.34;5227793;28;20070;-78
2021/12/11 11:22:05;;;;;;;17.48;5.65;;;;;;;6.26;94.37;101455.38;5241826;28;20030;-80
2021/12/11 11:24:43;;;;;;;12.98;4.80;;;;;;;6.28;94.29;101447.69;5237662;28;20036;-79
2021/12/11 11:27:17;;;;;;;13.70;4.70;;;;;;;6.30;94.29;101460.16;5241816;28;20025;-79
2021/12/11 11:29:49;;;;;;;12.45;4.68;;;;;;;6.28;94.01;101464.22;5241367;28;20062;-80
2021/12/11 11:32:32;;;;;;;13.98;4.60;;;;;;;6.25;93.19;101462.81;5240289;28;20025;-80
2021/12/11 11:35:14;;;;;;;12.73;4.43;;;;;;;6.29;93.29;101466.75;5229869;28;20037;-78
2021/12/11 11:37:51;;;;;;;14.43;5.63;;;;;;;6.36;93.45;101466.59;5226929;28;20134;-77
2021/12/11 11:40:27;;;;;;;13.90;4.82;;;;;;;6.39;93.20;101479.03;5233619;28;20036;-78
2021/12/11 11:42:59;;;;;;;16.40;4.78;;;;;;;6.41;93.31;101474.13;5229607;28;20033;-79
2021/12/11 11:45:34;;;;;;;16.92;5.90;;;;;;;6.44;93.72;101479.97;5221906;28;20032;-79
2021/12/11 11:48:07;;;;;;;10.90;4.40;;;;;;;6.41;93.39;101485.97;5235582;28;20025;-79
2021/12/11 11:50:45;;;;;;;11.30;4.30;;;;;;;6.47;93.27;101487.75;5229737;28;20461;-78
2021/12/11 11:53:19;;;;;;;12.25;5.20;;;;;;;6.49;93.15;101491.09;5240005;28;20060;-79
2021/12/11 11:56:03;;;;;;;12.52;4.60;;;;;;;6.54;93.06;101498.59;5237624;28;20595;-74
2021/12/11 11:58:34;;;;;;;16.38;4.65;;;;;;;6.42;92.68;101486.81;5234709;28;20064;-78
2021/12/11 12:01:32;;;;;;;16.45;6.78;;;;;;;6.40;92.39;101489.81;5239227;28;20021;-74
2021/12/11 12:04:05;;;;;;;22.08;9.88;;;;;;;6.37;92.62;101501.34;5239285;28;20091;-75
2021/12/11 12:06:37;;;;;;;16.00;4.93;;;;;;;6.34;92.48;101507.34;5240542;28;20033;-74
2021/12/11 12:09:12;;;;;;;17.40;6.25;;;;;;;6.34;92.32;101507.34;5232654;28;20063;-75
2021/12/11 12:11:44;;;;;;;19.50;5.88;;;;;;;6.37;92.14;101506.84;5240623;28;20396;-75
2021/12/11 12:14:20;;;;;;;15.82;5.10;;;;;;;6.43;92.70;101514.13;5241162;28;20036;-76
2021/12/11 12:16:53;;;;;;;11.63;5.63;;;;;;;6.49;92.85;101510.41;5240496;28;20030;-76
2021/12/11 12:19:26;;;;;;;21.30;9.65;;;;;;;6.56;92.23;101514.91;5233790;28;20385;-78
2021/12/11 12:22:03;;;;;;;16.80;6.60;;;;;;;6.53;91.83;101513.47;5220518;28;20073;-76
2021/12/11 12:24:36;;;;;;;16.38;6.85;;;;;;;6.60;92.05;101524.38;5235986;28;20029;-78
2021/12/11 12:27:11;;;;;;;17.70;6.45;;;;;;;6.57;91.40;101527.59;5229867;28;20029;-80
2021/12/11 12:29:44;;;;;;;21.98;6.50;;;;;;;6.53;91.16;101528.09;5231098;28;20072;-76
2021/12/11 12:32:23;;;;;;;20.48;7.47;;;;;;;6.59;91.39;101523.50;5238049;28;20476;-77
2021/12/11 12:34:57;;;;;;;16.25;5.97;;;;;;;6.57;91.32;101519.31;5221844;28;20101;-77
2021/12/11 12:37:29;;;;;;;15.25;6.22;;;;;;;6.61;91.78;101520.53;5227623;28;20030;-76
2021/12/11 12:40:03;;;;;;;14.77;5.93;;;;;;;6.69;91.21;101525.63;5231776;28;20057;-80
2021/12/11 12:42:50;;;;;;;23.15;7.15;;;;;;;6.66;90.50;101534.41;5227026;28;20060;-78
2021/12/11 12:45:30;;;;;;;15.52;6.00;;;;;;;6.71;90.79;101540.00;5240937;28;20381;-77
2021/12/11 12:48:06;;;;;;;15.90;6.40;;;;;;;6.78;90.60;101528.84;5244068;28;20098;-75
2021/12/11 12:50:48;;;;;;;13.18;5.88;;;;;;;6.81;90.83;101536.59;5239254;28;20094;-77
2021/12/11 12:53:22;;;;;;;20.63;8.45;;;;;;;6.84;90.39;101533.34;5223194;28;20389;-77
2021/12/11 12:56:17;;;;;;;19.63;12.55;;;;;;;6.90;90.73;101533.19;5235036;28;20068;-75
2021/12/11 12:59:21;;;;;;;17.42;6.70;;;;;;;6.88;90.06;101546.41;5227248;28;20081;-76
2021/12/11 13:01:57;;;;;;;21.60;8.75;;;;;;;6.87;90.17;101555.72;5223304;28;20037;-77
2021/12/11 13:04:37;;;;;;;13.85;5.93;;;;;;;6.76;90.22;101553.88;5223941;28;20377;-71
2021/12/11 13:10:12;;;;;;;14.93;5.78;;;;;;;6.82;91.19;101563.91;5242413;28;20060;-79
2021/12/11 13:12:47;;;;;;;16.27;5.47;;;;;;;6.82;90.90;101561.16;5240559;28;20033;-73
2021/12/11 13:15:30;;;;;;;16.00;7.32;;;;;;;6.87;91.24;101566.75;5225042;28;20512;-74
2021/12/11 13:18:10;;;;;;;15.00;6.38;;;;;;;6.75;91.17;101582.53;5227023;28;20037;-73
2021/12/11 13:20:49;;;;;;;28.27;18.10;;;;;;;6.80;91.18;101573.50;5232794;28;20025;-71
2021/12/11 13:23:23;;;;;;;13.95;6.65;;;;;;;6.80;91.12;101582.66;5227194;28;20024;-75
2021/12/11 13:25:59;;;;;;;14.52;5.57;;;;;;;6.82;91.08;101580.47;5241100;28;20025;-72
2021/12/11 13:28:36;;;;;;;17.90;5.97;;;;;;;6.93;91.94;101581.50;5241803;28;20028;-74
2021/12/11 13:31:16;;;;;;;13.43;5.45;;;;;;;7.05;92.16;101578.66;5243973;28;20021;-74
2021/12/11 13:33:48;;;;;;;16.52;6.18;;;;;;;7.04;91.34;101588.88;5230344;28;20017;-77
2021/12/11 13:36:26;;;;;;;10.40;4.45;;;;;;;7.29;92.08;101588.50;5227410;28;20030;-77
2021/12/11 13:38:57;;;;;;;13.07;5.63;;;;;;;7.14;91.68;101591.81;5226403;28;20104;-76
2021/12/11 13:41:35;;;;;;;14.43;6.50;;;;;;;7.08;90.91;101595.56;5243995;28;20061;-74
2021/12/11 13:44:07;;;;;;;11.88;6.32;;;;;;;7.26;91.60;101596.41;5236854;28;20128;-75
2021/12/11 13:46:40;;;;;;;14.02;7.47;;;;;;;7.12;90.58;101593.97;5224775;28;20032;-72
2021/12/11 13:49:11;;;;;;;15.70;8.50;;;;;;;7.18;90.13;101594.91;5221858;28;20183;-72
2021/12/11 13:51:44;;;;;;;15.48;9.50;;;;;;;7.10;90.27;101596.13;5229698;28;20524;-71
2021/12/11 13:54:16;;;;;;;18.85;8.30;;;;;;;7.10;89.96;101598.06;5243225;28;20074;-70
2021/12/11 13:56:52;;;;;;;19.58;8.18;;;;;;;7.12;90.14;101604.19;5241931;28;20100;-71
2021/12/11 13:59:27;;;;;;;13.82;8.27;;;;;;;7.17;89.95;101604.28;5239223;28;20053;-72
2021/12/11 14:01:59;;;;;;;13.60;7.13;;;;;;;7.10;89.03;101606.34;5241178;28;20029;-73
2021/12/11 14:04:32;;;;;;;13.18;7.00;;;;;;;7.02;88.43;101612.28;5242361;28;20421;-72
2021/12/11 14:07:12;;;;;;;12.75;7.35;;;;;;;7.09;88.83;101618.47;5240184;28;20041;-72
2021/12/11 14:09:51;;;;;;;14.48;8.98;;;;;;;7.11;88.70;101624.59;5233040;28;20029;-72
2021/12/11 14:12:25;;;;;;;13.80;9.05;;;;;;;7.15;88.58;101623.00;5237334;28;20473;-75
2021/12/11 14:14:59;;;;;;;16.30;7.95;;;;;;;7.14;88.55;101615.81;5229449;28;20562;-72
2021/12/11 14:17:31;;;;;;;16.58;8.10;;;;;;;7.13;87.91;101619.63;5241380;28;20076;-71
2021/12/11 14:20:04;;;;;;;28.33;14.07;;;;;;;7.13;86.74;101626.00;5241260;28;20469;-75
2021/12/11 14:22:37;;;;;;;16.02;7.53;;;;;;;7.14;87.51;101638.72;5242164;28;20025;-72
2021/12/11 14:25:12;;;;;;;14.90;7.10;;;;;;;7.15;85.98;101625.75;5238999;28;20107;-72
2021/12/11 14:27:44;;;;;;;16.42;6.68;;;;;;;7.15;85.29;101640.38;5239910;28;20029;-72
2021/12/11 14:30:17;;;;;;;18.15;8.43;;;;;;;7.02;85.06;101645.38;5241367;28;20041;-72
2021/12/11 14:32:54;;;;;;;15.77;7.82;;;;;;;7.09;84.92;101646.88;5237346;28;20018;-74
2021/12/11 14:35:28;;;;;;;20.80;7.70;;;;;;;7.06;85.28;101657.59;5221757;28;20041;-73
2021/12/11 14:38:00;;;;;;;16.33;7.72;;;;;;;6.96;85.53;101650.78;5221748;28;20026;-69
2021/12/11 14:40:35;;;;;;;11.75;6.97;;;;;;;7.04;86.54;101660.59;5220794;28;20045;-69
2021/12/11 14:43:08;;;;;;;12.80;6.60;;;;;;;7.04;85.71;101660.59;5241635;28;20025;-70
2021/12/11 14:45:43;;;;;;;11.40;6.90;;;;;;;7.06;85.62;101657.59;5229396;28;20493;-70
2021/12/11 14:48:15;;;;;;;12.63;5.72;;;;;;;7.08;84.68;101666.44;5221971;28;20462;-71
2021/12/11 14:50:55;;;;;;;15.05;6.65;;;;;;;6.98;84.59;101672.59;5231735;28;20025;-72
2021/12/11 14:53:33;;;;;;;13.75;6.78;;;;;;;6.93;84.32;101675.28;5239676;28;20037;-73
2021/12/11 14:56:09;;;;;;;10.80;6.10;;;;;;;6.93;84.66;101676.09;5237716;28;20465;-73
2021/12/11 14:58:42;;;;;;;13.80;5.78;;;;;;;6.86;84.81;101691.13;5228789;28;20045;-74
2021/12/11 15:01:25;;;;;;;11.65;5.97;;;;;;;6.81;84.40;101688.25;5239186;28;20045;-73
2021/12/11 15:03:58;;;;;;;11.13;5.35;;;;;;;6.84;84.11;101696.03;5242225;28;20033;-74
2021/12/11 15:06:29;;;;;;;14.50;5.63;;;;;;;6.84;84.29;101694.09;5242927;28;20108;-75
2021/12/11 15:09:02;;;;;;;12.80;5.18;;;;;;;6.78;84.02;101705.28;5229385;28;20143;-75
2021/12/11 15:11:36;;;;;;;10.38;6.22;;;;;;;6.78;83.92;101708.03;5239550;28;20037;-73
2021/12/11 15:14:12;;;;;;;12.80;5.38;;;;;;;6.77;83.85;101700.84;5239261;28;20064;-77
2021/12/11 15:16:45;;;;;;;;;;;;;;;6.85;84.71;101712.34;5227922;28;20045;-75
2021/12/11 15:19:19;;;;;;;9.02;4.68;;;;;;;6.61;84.19;101711.53;5237462;28;19924;-77
2021/12/11 15:21:51;;;;;;;9.40;5.30;;;;;;;6.69;84.64;101713.91;5233838;28;20025;-73
2021/12/11 15:24:22;;;;;;;15.40;6.50;;;;;;;6.65;84.29;101711.91;5236434;28;20032;-74
2021/12/11 15:26:54;;;;;;;13.20;6.47;;;;;;;6.59;84.58;101718.38;5232659;28;20500;-75
2021/12/11 15:29:26;;;;;;;13.40;7.15;;;;;;;6.59;85.06;101718.38;5232318;28;20396;-76
2021/12/11 15:31:59;;;;;;;18.10;10.30;;;;;;;6.60;85.17;101731.09;5236223;28;20026;-76
2021/12/11 15:34:31;;;;;;;16.10;9.00;;;;;;;6.52;84.61;101727.63;5239107;28;20227;-75
2021/12/11 15:37:05;;;;;;;10.20;6.90;;;;;;;6.53;84.51;101725.69;5241032;28;20540;-75
2021/12/11 15:39:42;;;;;;;16.00;8.02;;;;;;;6.52;84.52;101726.78;5239143;28;20033;-76
2021/12/11 15:42:14;;;;;;;11.85;6.57;;;;;;;6.47;84.19;101730.25;5242035;28;20477;-75
2021/12/11 15:44:52;;;;;;;13.15;6.85;;;;;;;6.56;83.85;101732.63;5261894;28;20032;-81
2021/12/11 15:47:30;;;;;;;13.20;7.72;;;;;;;6.54;83.75;101735.63;5254015;28;20029;-80
2021/12/11 15:50:05;;;;;;;16.42;7.72;;;;;;;6.56;83.45;101735.38;5230716;28;20037;-76
2021/12/11 15:52:37;;;;;;;24.85;14.13;;;;;;;6.67;85.41;101742.78;5221791;28;20026;-79
2021/12/11 15:55:14;;;;;;;13.75;6.68;;;;;;;6.53;84.12;101734.78;5219889;28;20025;-78
2021/12/11 15:57:48;;;;;;;17.85;6.30;;;;;;;6.51;84.29;101734.19;5219794;28;20045;-78
2021/12/11 16:00:24;;;;;;;19.85;6.03;;;;;;;6.52;83.81;101730.38;5238733;28;20057;-75
2021/12/11 16:02:57;;;;;;;13.13;5.70;;;;;;;6.72;86.16;101734.63;5240552;28;20116;-76
2021/12/11 16:05:29;;;;;;;23.55;12.90;;;;;;;6.65;84.55;101737.53;5240900;28;20025;-70
2021/12/11 16:08:01;;;;;;;23.42;14.85;;;;;;;6.55;84.26;101740.06;5222790;28;20088;-73
2021/12/11 16:10:32;;;;;;;27.05;11.40;;;;;;;6.55;83.63;101744.75;5219182;28;20112;-73
2021/12/11 16:13:05;;;;;;;12.98;5.82;;;;;;;6.51;83.24;101747.97;5220656;28;20022;-73
2021/12/11 16:15:41;;;;;;;14.75;6.75;;;;;;;6.45;83.30;101748.94;5225000;28;20041;-72
2021/12/11 16:18:13;;;;;;;18.42;7.35;;;;;;;6.35;83.45;101756.97;5220021;28;20029;-74
2021/12/11 16:20:49;;;;;;;16.52;9.02;;;;;;;6.30;83.58;101760.44;5223044;28;20052;-71
2021/12/11 16:23:24;;;;;;;12.30;6.15;;;;;;;6.26;83.67;101761.13;5233195;28;20025;-72
2021/12/11 16:25:55;;;;;;;11.32;6.72;;;;;;;6.28;83.79;101770.00;5237354;28;20032;-71
2021/12/11 16:28:27;;;;;;;14.90;6.60;;;;;;;6.31;83.76;101773.16;5226530;28;20489;-71
2021/12/11 16:31:00;;;;;;;15.10;7.25;;;;;;;6.22;84.04;101784.75;5223626;28;20036;-73
2021/12/11 16:33:32;;;;;;;14.30;7.03;;;;;;;6.22;84.31;101782.81;5224219;28;20024;-75
2021/12/11 16:36:06;;;;;;;13.30;7.10;;;;;;;6.11;84.06;101783.66;5241061;28;20037;-74
2021/12/11 16:38:41;;;;;;;14.60;8.80;;;;;;;6.12;84.18;101787.25;5242885;28;20026;-76
2021/12/11 16:41:22;;;;;;;15.83;8.10;;;;;;;6.08;84.70;101789.63;5243062;28;20481;-74
2021/12/11 16:43:59;;;;;;;13.73;8.30;;;;;;;6.07;84.63;101794.28;5244709;28;20025;-76
2021/12/11 16:46:37;;;;;;;18.42;8.43;;;;;;;6.06;84.44;101787.13;5243946;28;20037;-76
2021/12/11 16:49:11;;;;;;;15.82;8.00;;;;;;;6.00;84.39;101800.97;5243682;28;20087;-77
2021/12/11 16:51:45;;;;;;;12.00;7.95;;;;;;;5.99;84.36;101794.66;5243997;28;20028;-75
2021/12/11 16:54:18;;;;;;;18.27;11.98;;;;;;;5.96;84.92;101803.38;5237428;28;20036;-75
2021/12/11 16:56:50;;;;;;;21.17;11.95;;;;;;;5.79;84.84;101807.84;5224559;28;20065;-76
2021/12/11 16:59:21;;;;;;;19.42;11.63;;;;;;;5.87;84.91;101815.75;5229107;28;20052;-74
2021/12/11 17:01:56;;;;;;;41.88;20.10;;;;;;;5.81;85.22;101819.47;5238738;28;20032;-74
2021/12/11 17:04:28;;;;;;;35.17;23.43;;;;;;;5.79;85.05;101829.88;5244371;28;20473;-74
2021/12/11 17:07:07;;;;;;;19.25;12.30;;;;;;;5.81;85.17;101828.56;5243721;28;20120;-74
2021/12/11 17:09:42;;;;;;;21.83;14.15;;;;;;;5.74;85.27;101821.47;5229329;28;20045;-71
2021/12/11 17:12:19;;;;;;;18.13;12.15;;;;;;;5.73;85.56;101828.88;5243810;28;20056;-73
2021/12/11 17:14:59;;;;;;;24.52;12.07;;;;;;;5.68;85.79;101827.91;5237670;28;20021;-73
2021/12/11 17:17:30;;;;;;;20.10;12.30;;;;;;;5.72;85.61;101831.88;5239220;28;20112;-75
2021/12/11 17:20:08;;;;;;;22.10;12.15;;;;;;;5.72;85.69;101823.59;5225238;28;20100;-74
2021/12/11 17:22:44;;;;;;;15.82;11.90;;;;;;;5.64;85.40;101822.03;5226478;28;20029;-73
2021/12/11 17:25:25;;;;;;;19.65;11.13;;;;;;;5.65;85.78;101829.22;5242523;28;20025;-73
2021/12/11 17:28:02;;;;;;;19.35;11.77;;;;;;;5.66;86.14;101825.38;5237903;28;20036;-74
2021/12/11 17:30:35;;;;;;;18.65;12.80;;;;;;;5.65;85.78;101829.22;5242818;28;20044;-74
